LAI weather

La Irlanda Airport
El Paso, César Department, Colombia

Public forecast

Using degrees Celsius for public forecast. Weather courtesy of forecast.io.

Closest aviation weather report (METAR) to La Irlanda Airport

Closest report is Alfonso López Pumarejo Airport, 53.9 nm (99.8 km) NNE. Retrieved 2019/10/21 13:00 UTC (39 minutes ago):

SKVP 211300Z 06007KT 9999 FEW015 BKN100 26/23 A3000

Closest aviation forecast (TAF) to La Irlanda Airport

Forecast is more than 12 hours old.

Closest forecast is Villa del Rosario Airport, 89.1 nm (165.1 km) ENE. Retrieved 2019/09/09 18:00 UTC (1 month ago):

TAF SVVS 091700Z 0918/1018 18004KT 9999 BKN016 TX30/0919Z TN22/1008Z TEMPO 0919/0921 9000 DZ TEMPO 0922/1002 24005KT 9999 SCT016 SCT150